sensor_id;sensor_type;location;lat;lon;timestamp;P1;durP1;ratioP1;P2;durP2;ratioP2
75009;SDS011;63564;46.840;18.336;2022-10-23T00:04:23;36.67;;;16.13;;
75009;SDS011;63564;46.840;18.336;2022-10-23T00:07:26;29.37;;;13.87;;
75009;SDS011;63564;46.840;18.336;2022-10-23T00:10:27;32.72;;;15.10;;
75009;SDS011;63564;46.840;18.336;2022-10-23T00:13:27;30.60;;;14.20;;
75009;SDS011;63564;46.840;18.336;2022-10-23T00:16:28;31.33;;;14.53;;
75009;SDS011;63564;46.840;18.336;2022-10-23T00:19:29;32.97;;;14.25;;
75009;SDS011;63564;46.840;18.336;2022-10-23T00:22:29;24.97;;;12.97;;
75009;SDS011;63564;46.840;18.336;2022-10-23T00:25:29;26.93;;;13.43;;
75009;SDS011;63564;46.840;18.336;2022-10-23T00:28:31;28.00;;;13.40;;
75009;SDS011;63564;46.840;18.336;2022-10-23T00:31:31;29.43;;;13.70;;
75009;SDS011;63564;46.840;18.336;2022-10-23T00:34:32;43.03;;;15.40;;
75009;SDS011;63564;46.840;18.336;2022-10-23T00:37:32;48.77;;;15.83;;
75009;SDS011;63564;46.840;18.336;2022-10-23T00:40:33;56.03;;;16.23;;
75009;SDS011;63564;46.840;18.336;2022-10-23T00:43:52;83.70;;;17.80;;
75009;SDS011;63564;46.840;18.336;2022-10-23T00:47:13;148.18;;;21.23;;
75009;SDS011;63564;46.840;18.336;2022-10-23T00:50:14;194.80;;;21.73;;
75009;SDS011;63564;46.840;18.336;2022-10-23T00:53:16;83.15;;;17.20;;
75009;SDS011;63564;46.840;18.336;2022-10-23T00:56:19;366.13;;;29.10;;
75009;SDS011;63564;46.840;18.336;2022-10-23T00:59:19;258.37;;;23.27;;
75009;SDS011;63564;46.840;18.336;2022-10-23T01:02:20;440.83;;;32.50;;
75009;SDS011;63564;46.840;18.336;2022-10-23T01:05:21;384.30;;;31.93;;
75009;SDS011;63564;46.840;18.336;2022-10-23T01:08:37;117.60;;;19.90;;
75009;SDS011;63564;46.840;18.336;2022-10-23T01:11:59;55.30;;;13.57;;
75009;SDS011;63564;46.840;18.336;2022-10-23T01:15:09;53.67;;;12.23;;
75009;SDS011;63564;46.840;18.336;2022-10-23T01:21:28;83.57;;;14.27;;
75009;SDS011;63564;46.840;18.336;2022-10-23T01:24:49;91.60;;;15.27;;
75009;SDS011;63564;46.840;18.336;2022-10-23T01:28:00;65.10;;;13.43;;
75009;SDS011;63564;46.840;18.336;2022-10-23T01:31:04;108.57;;;14.98;;
75009;SDS011;63564;46.840;18.336;2022-10-23T01:34:17;45.30;;;12.00;;
75009;SDS011;63564;46.840;18.336;2022-10-23T01:37:27;20.30;;;10.52;;
75009;SDS011;63564;46.840;18.336;2022-10-23T01:40:37;17.27;;;10.18;;
75009;SDS011;63564;46.840;18.336;2022-10-23T01:43:45;18.77;;;10.27;;
75009;SDS011;63564;46.840;18.336;2022-10-23T01:46:54;23.30;;;11.13;;
75009;SDS011;63564;46.840;18.336;2022-10-23T01:49:56;19.33;;;10.90;;
75009;SDS011;63564;46.840;18.336;2022-10-23T01:52:57;17.48;;;10.23;;
75009;SDS011;63564;46.840;18.336;2022-10-23T01:55:58;20.20;;;10.57;;
75009;SDS011;63564;46.840;18.336;2022-10-23T01:59:03;21.40;;;11.07;;
75009;SDS011;63564;46.840;18.336;2022-10-23T02:02:07;19.17;;;10.70;;
75009;SDS011;63564;46.840;18.336;2022-10-23T02:05:11;22.20;;;11.05;;
75009;SDS011;63564;46.840;18.336;2022-10-23T02:08:13;25.40;;;12.30;;
75009;SDS011;63564;46.840;18.336;2022-10-23T02:11:15;31.67;;;13.03;;
75009;SDS011;63564;46.840;18.336;2022-10-23T02:15:02;20.95;;;10.85;;
75009;SDS011;63564;46.840;18.336;2022-10-23T02:21:03;17.53;;;10.10;;
75009;SDS011;63564;46.840;18.336;2022-10-23T02:24:08;17.35;;;9.50;;
75009;SDS011;63564;46.840;18.336;2022-10-23T02:27:12;25.23;;;10.13;;
75009;SDS011;63564;46.840;18.336;2022-10-23T02:30:17;24.48;;;11.43;;
75009;SDS011;63564;46.840;18.336;2022-10-23T02:33:19;19.60;;;10.52;;
75009;SDS011;63564;46.840;18.336;2022-10-23T02:36:19;21.77;;;10.40;;
75009;SDS011;63564;46.840;18.336;2022-10-23T02:39:23;21.10;;;10.77;;
75009;SDS011;63564;46.840;18.336;2022-10-23T02:42:30;17.45;;;9.25;;
75009;SDS011;63564;46.840;18.336;2022-10-23T02:45:37;17.80;;;9.30;;
75009;SDS011;63564;46.840;18.336;2022-10-23T02:48:52;16.93;;;8.63;;
75009;SDS011;63564;46.840;18.336;2022-10-23T03:04:49;14.47;;;7.50;;
75009;SDS011;63564;46.840;18.336;2022-10-23T03:07:53;58.92;;;9.98;;
75009;SDS011;63564;46.840;18.336;2022-10-23T03:10:53;93.27;;;11.40;;
75009;SDS011;63564;46.840;18.336;2022-10-23T03:13:53;19.63;;;8.18;;
75009;SDS011;63564;46.840;18.336;2022-10-23T03:16:54;98.87;;;11.00;;
75009;SDS011;63564;46.840;18.336;2022-10-23T03:19:54;67.43;;;9.37;;
75009;SDS011;63564;46.840;18.336;2022-10-23T03:22:55;128.30;;;11.67;;
75009;SDS011;63564;46.840;18.336;2022-10-23T03:25:55;105.10;;;11.30;;
75009;SDS011;63564;46.840;18.336;2022-10-23T03:28:55;228.63;;;18.63;;
75009;SDS011;63564;46.840;18.336;2022-10-23T03:31:56;268.70;;;17.87;;
75009;SDS011;63564;46.840;18.336;2022-10-23T03:34:56;124.50;;;14.23;;
75009;SDS011;63564;46.840;18.336;2022-10-23T03:37:56;213.97;;;17.30;;
75009;SDS011;63564;46.840;18.336;2022-10-23T03:40:57;342.97;;;25.07;;
75009;SDS011;63564;46.840;18.336;2022-10-23T03:43:57;349.43;;;28.33;;
75009;SDS011;63564;46.840;18.336;2022-10-23T03:46:57;390.73;;;29.23;;
75009;SDS011;63564;46.840;18.336;2022-10-23T03:49:58;339.43;;;27.40;;
75009;SDS011;63564;46.840;18.336;2022-10-23T03:52:58;286.80;;;24.17;;
75009;SDS011;63564;46.840;18.336;2022-10-23T03:55:58;315.27;;;26.57;;
75009;SDS011;63564;46.840;18.336;2022-10-23T03:58:59;278.17;;;25.88;;
75009;SDS011;63564;46.840;18.336;2022-10-23T04:02:00;315.53;;;27.07;;
75009;SDS011;63564;46.840;18.336;2022-10-23T04:05:00;336.00;;;29.53;;
75009;SDS011;63564;46.840;18.336;2022-10-23T04:08:00;328.80;;;27.73;;
75009;SDS011;63564;46.840;18.336;2022-10-23T04:11:01;357.90;;;30.97;;
75009;SDS011;63564;46.840;18.336;2022-10-23T04:14:01;386.80;;;32.75;;
75009;SDS011;63564;46.840;18.336;2022-10-23T04:17:02;361.97;;;32.07;;
75009;SDS011;63564;46.840;18.336;2022-10-23T04:20:02;316.33;;;30.23;;
75009;SDS011;63564;46.840;18.336;2022-10-23T04:23:02;369.07;;;32.07;;
75009;SDS011;63564;46.840;18.336;2022-10-23T04:26:03;332.43;;;29.67;;
75009;SDS011;63564;46.840;18.336;2022-10-23T04:29:03;416.43;;;35.40;;
75009;SDS011;63564;46.840;18.336;2022-10-23T04:32:05;386.38;;;32.17;;
75009;SDS011;63564;46.840;18.336;2022-10-23T04:35:06;361.47;;;30.50;;
75009;SDS011;63564;46.840;18.336;2022-10-23T04:38:07;216.10;;;22.35;;
75009;SDS011;63564;46.840;18.336;2022-10-23T04:44:41;278.50;;;26.08;;
75009;SDS011;63564;46.840;18.336;2022-10-23T04:47:42;336.50;;;28.40;;
75009;SDS011;63564;46.840;18.336;2022-10-23T04:50:42;380.60;;;30.40;;
75009;SDS011;63564;46.840;18.336;2022-10-23T04:53:42;383.67;;;28.80;;
75009;SDS011;63564;46.840;18.336;2022-10-23T04:56:43;434.57;;;30.77;;
75009;SDS011;63564;46.840;18.336;2022-10-23T04:59:43;457.57;;;34.93;;
75009;SDS011;63564;46.840;18.336;2022-10-23T05:02:44;342.47;;;28.03;;
75009;SDS011;63564;46.840;18.336;2022-10-23T05:05:44;378.75;;;30.20;;
75009;SDS011;63564;46.840;18.336;2022-10-23T05:08:45;372.50;;;29.33;;
75009;SDS011;63564;46.840;18.336;2022-10-23T05:11:45;443.47;;;34.60;;
75009;SDS011;63564;46.840;18.336;2022-10-23T05:14:45;345.07;;;27.47;;
75009;SDS011;63564;46.840;18.336;2022-10-23T05:17:46;418.50;;;31.50;;
75009;SDS011;63564;46.840;18.336;2022-10-23T05:20:50;353.30;;;26.53;;
75009;SDS011;63564;46.840;18.336;2022-10-23T05:23:55;331.95;;;25.13;;
75009;SDS011;63564;46.840;18.336;2022-10-23T05:26:56;424.25;;;31.25;;
75009;SDS011;63564;46.840;18.336;2022-10-23T05:29:56;315.23;;;26.90;;
75009;SDS011;63564;46.840;18.336;2022-10-23T05:32:58;345.37;;;24.67;;
75009;SDS011;63564;46.840;18.336;2022-10-23T05:36:00;377.80;;;25.90;;
75009;SDS011;63564;46.840;18.336;2022-10-23T05:39:00;187.80;;;16.13;;
75009;SDS011;63564;46.840;18.336;2022-10-23T05:42:01;138.43;;;14.48;;
75009;SDS011;63564;46.840;18.336;2022-10-23T05:45:01;295.77;;;19.87;;
75009;SDS011;63564;46.840;18.336;2022-10-23T05:48:02;240.00;;;20.93;;
75009;SDS011;63564;46.840;18.336;2022-10-23T05:51:03;277.43;;;20.23;;
75009;SDS011;63564;46.840;18.336;2022-10-23T05:54:08;317.10;;;21.63;;
75009;SDS011;63564;46.840;18.336;2022-10-23T05:57:08;286.63;;;21.37;;
75009;SDS011;63564;46.840;18.336;2022-10-23T06:00:09;259.73;;;19.67;;
75009;SDS011;63564;46.840;18.336;2022-10-23T06:03:10;285.48;;;20.42;;
75009;SDS011;63564;46.840;18.336;2022-10-23T06:06:10;375.02;;;24.15;;
75009;SDS011;63564;46.840;18.336;2022-10-23T06:09:11;220.43;;;17.38;;
75009;SDS011;63564;46.840;18.336;2022-10-23T06:12:11;206.10;;;15.63;;
75009;SDS011;63564;46.840;18.336;2022-10-23T06:15:12;129.97;;;12.40;;
75009;SDS011;63564;46.840;18.336;2022-10-23T06:18:12;131.83;;;12.43;;
75009;SDS011;63564;46.840;18.336;2022-10-23T06:21:13;132.35;;;11.35;;
75009;SDS011;63564;46.840;18.336;2022-10-23T06:24:14;115.17;;;10.13;;
75009;SDS011;63564;46.840;18.336;2022-10-23T06:27:14;143.32;;;10.93;;
75009;SDS011;63564;46.840;18.336;2022-10-23T06:30:15;101.30;;;9.07;;
75009;SDS011;63564;46.840;18.336;2022-10-23T06:33:15;106.30;;;9.47;;
75009;SDS011;63564;46.840;18.336;2022-10-23T06:36:15;93.57;;;9.50;;
75009;SDS011;63564;46.840;18.336;2022-10-23T06:39:16;106.20;;;8.40;;
75009;SDS011;63564;46.840;18.336;2022-10-23T06:42:16;68.03;;;7.23;;
75009;SDS011;63564;46.840;18.336;2022-10-23T06:45:17;81.38;;;8.52;;
75009;SDS011;63564;46.840;18.336;2022-10-23T06:48:17;94.70;;;7.88;;
75009;SDS011;63564;46.840;18.336;2022-10-23T06:51:17;90.93;;;7.50;;
75009;SDS011;63564;46.840;18.336;2022-10-23T06:54:18;91.90;;;9.40;;
75009;SDS011;63564;46.840;18.336;2022-10-23T06:57:18;127.67;;;10.90;;
75009;SDS011;63564;46.840;18.336;2022-10-23T07:00:19;102.97;;;7.87;;
75009;SDS011;63564;46.840;18.336;2022-10-23T07:03:20;95.75;;;8.65;;
75009;SDS011;63564;46.840;18.336;2022-10-23T07:06:21;88.63;;;7.35;;
75009;SDS011;63564;46.840;18.336;2022-10-23T07:09:21;71.00;;;7.75;;
75009;SDS011;63564;46.840;18.336;2022-10-23T07:12:22;92.30;;;8.70;;
75009;SDS011;63564;46.840;18.336;2022-10-23T07:15:23;61.28;;;7.85;;
75009;SDS011;63564;46.840;18.336;2022-10-23T07:18:23;89.20;;;9.73;;
75009;SDS011;63564;46.840;18.336;2022-10-23T07:21:24;38.27;;;7.20;;
75009;SDS011;63564;46.840;18.336;2022-10-23T07:24:26;62.97;;;8.18;;
75009;SDS011;63564;46.840;18.336;2022-10-23T07:27:26;22.73;;;6.97;;
75009;SDS011;63564;46.840;18.336;2022-10-23T07:30:27;39.10;;;5.85;;
75009;SDS011;63564;46.840;18.336;2022-10-23T07:33:27;23.73;;;5.15;;
75009;SDS011;63564;46.840;18.336;2022-10-23T07:36:27;23.80;;;5.40;;
75009;SDS011;63564;46.840;18.336;2022-10-23T07:39:28;26.10;;;5.70;;
75009;SDS011;63564;46.840;18.336;2022-10-23T07:42:28;23.57;;;5.17;;
75009;SDS011;63564;46.840;18.336;2022-10-23T07:45:28;26.93;;;5.63;;
75009;SDS011;63564;46.840;18.336;2022-10-23T07:48:29;41.27;;;5.63;;
75009;SDS011;63564;46.840;18.336;2022-10-23T07:51:30;17.75;;;4.65;;
75009;SDS011;63564;46.840;18.336;2022-10-23T07:54:30;17.23;;;5.37;;
75009;SDS011;63564;46.840;18.336;2022-10-23T07:57:31;15.10;;;4.90;;
75009;SDS011;63564;46.840;18.336;2022-10-23T08:00:31;12.77;;;4.70;;
75009;SDS011;63564;46.840;18.336;2022-10-23T08:03:32;15.37;;;5.33;;
75009;SDS011;63564;46.840;18.336;2022-10-23T08:06:33;19.92;;;5.18;;
75009;SDS011;63564;46.840;18.336;2022-10-23T08:09:34;18.53;;;5.30;;
75009;SDS011;63564;46.840;18.336;2022-10-23T08:12:36;30.25;;;5.50;;
75009;SDS011;63564;46.840;18.336;2022-10-23T08:15:37;18.03;;;5.73;;
75009;SDS011;63564;46.840;18.336;2022-10-23T08:18:37;27.48;;;5.43;;
75009;SDS011;63564;46.840;18.336;2022-10-23T08:21:40;13.70;;;4.80;;
75009;SDS011;63564;46.840;18.336;2022-10-23T08:24:40;10.73;;;4.95;;
75009;SDS011;63564;46.840;18.336;2022-10-23T08:27:41;10.63;;;4.37;;
75009;SDS011;63564;46.840;18.336;2022-10-23T08:30:41;10.23;;;4.80;;
75009;SDS011;63564;46.840;18.336;2022-10-23T08:33:41;10.40;;;5.10;;
75009;SDS011;63564;46.840;18.336;2022-10-23T08:36:42;12.40;;;5.22;;
75009;SDS011;63564;46.840;18.336;2022-10-23T08:39:42;16.67;;;5.90;;
75009;SDS011;63564;46.840;18.336;2022-10-23T08:42:43;12.13;;;5.17;;
75009;SDS011;63564;46.840;18.336;2022-10-23T08:45:51;12.27;;;5.07;;
75009;SDS011;63564;46.840;18.336;2022-10-23T08:49:04;11.53;;;5.30;;
75009;SDS011;63564;46.840;18.336;2022-10-23T08:52:26;11.32;;;4.95;;
75009;SDS011;63564;46.840;18.336;2022-10-23T08:55:33;12.18;;;5.03;;
75009;SDS011;63564;46.840;18.336;2022-10-23T08:58:42;10.93;;;4.70;;
75009;SDS011;63564;46.840;18.336;2022-10-23T09:01:51;12.27;;;5.70;;
75009;SDS011;63564;46.840;18.336;2022-10-23T09:05:01;13.87;;;5.60;;
75009;SDS011;63564;46.840;18.336;2022-10-23T09:08:20;13.40;;;5.65;;
75009;SDS011;63564;46.840;18.336;2022-10-23T09:11:52;12.17;;;5.83;;
75009;SDS011;63564;46.840;18.336;2022-10-23T09:18:16;11.93;;;5.97;;
75009;SDS011;63564;46.840;18.336;2022-10-23T09:21:16;14.60;;;6.13;;
75009;SDS011;63564;46.840;18.336;2022-10-23T09:24:18;12.20;;;5.47;;
75009;SDS011;63564;46.840;18.336;2022-10-23T09:27:20;15.97;;;6.33;;
75009;SDS011;63564;46.840;18.336;2022-10-23T09:30:29;11.98;;;6.22;;
75009;SDS011;63564;46.840;18.336;2022-10-23T09:33:39;11.55;;;5.72;;
75009;SDS011;63564;46.840;18.336;2022-10-23T09:36:46;10.93;;;5.63;;
75009;SDS011;63564;46.840;18.336;2022-10-23T09:39:48;11.10;;;5.55;;
75009;SDS011;63564;46.840;18.336;2022-10-23T09:43:02;11.02;;;5.65;;
75009;SDS011;63564;46.840;18.336;2022-10-23T09:46:12;10.65;;;5.47;;
75009;SDS011;63564;46.840;18.336;2022-10-23T09:49:26;10.47;;;5.23;;
75009;SDS011;63564;46.840;18.336;2022-10-23T09:52:29;11.00;;;5.90;;
75009;SDS011;63564;46.840;18.336;2022-10-23T09:55:34;12.57;;;6.30;;
75009;SDS011;63564;46.840;18.336;2022-10-23T09:58:35;9.73;;;5.35;;
75009;SDS011;63564;46.840;18.336;2022-10-23T10:01:46;11.37;;;5.60;;
75009;SDS011;63564;46.840;18.336;2022-10-23T10:04:49;9.98;;;5.50;;
75009;SDS011;63564;46.840;18.336;2022-10-23T10:07:53;10.17;;;5.40;;
75009;SDS011;63564;46.840;18.336;2022-10-23T10:18:14;10.57;;;6.32;;
75009;SDS011;63564;46.840;18.336;2022-10-23T10:21:24;9.50;;;5.73;;
75009;SDS011;63564;46.840;18.336;2022-10-23T10:24:29;9.27;;;5.50;;
75009;SDS011;63564;46.840;18.336;2022-10-23T10:30:48;8.77;;;5.00;;
75009;SDS011;63564;46.840;18.336;2022-10-23T10:38:03;9.37;;;5.57;;
75009;SDS011;63564;46.840;18.336;2022-10-23T10:41:20;8.47;;;4.63;;
75009;SDS011;63564;46.840;18.336;2022-10-23T10:57:30;9.97;;;5.30;;
75009;SDS011;63564;46.840;18.336;2022-10-23T11:00:32;8.73;;;5.00;;
75009;SDS011;63564;46.840;18.336;2022-10-23T11:03:35;9.00;;;5.40;;
75009;SDS011;63564;46.840;18.336;2022-10-23T11:06:40;9.73;;;6.00;;
75009;SDS011;63564;46.840;18.336;2022-10-23T11:09:44;9.48;;;5.72;;
75009;SDS011;63564;46.840;18.336;2022-10-23T11:12:45;10.82;;;5.85;;
75009;SDS011;63564;46.840;18.336;2022-10-23T11:15:47;9.90;;;5.85;;
75009;SDS011;63564;46.840;18.336;2022-10-23T11:19:02;9.87;;;6.07;;
75009;SDS011;63564;46.840;18.336;2022-10-23T11:22:18;9.38;;;5.55;;
75009;SDS011;63564;46.840;18.336;2022-10-23T11:32:31;8.80;;;5.65;;
75009;SDS011;63564;46.840;18.336;2022-10-23T11:42:26;8.75;;;5.25;;
75009;SDS011;63564;46.840;18.336;2022-10-23T11:45:34;8.55;;;4.90;;
75009;SDS011;63564;46.840;18.336;2022-10-23T11:48:40;9.05;;;5.28;;
75009;SDS011;63564;46.840;18.336;2022-10-23T11:51:42;8.10;;;5.17;;
75009;SDS011;63564;46.840;18.336;2022-10-23T11:54:43;8.30;;;5.10;;
75009;SDS011;63564;46.840;18.336;2022-10-23T11:57:44;8.33;;;4.97;;
75009;SDS011;63564;46.840;18.336;2022-10-23T12:04:45;8.30;;;4.75;;
75009;SDS011;63564;46.840;18.336;2022-10-23T12:07:52;8.40;;;4.68;;
75009;SDS011;63564;46.840;18.336;2022-10-23T12:10:54;7.55;;;4.30;;
75009;SDS011;63564;46.840;18.336;2022-10-23T12:13:55;7.63;;;4.40;;
75009;SDS011;63564;46.840;18.336;2022-10-23T12:16:55;7.83;;;4.60;;
75009;SDS011;63564;46.840;18.336;2022-10-23T12:32:45;7.30;;;4.22;;
75009;SDS011;63564;46.840;18.336;2022-10-23T12:39:26;7.82;;;4.60;;
75009;SDS011;63564;46.840;18.336;2022-10-23T12:42:28;7.57;;;4.70;;
75009;SDS011;63564;46.840;18.336;2022-10-23T12:45:30;6.40;;;3.63;;
75009;SDS011;63564;46.840;18.336;2022-10-23T12:48:45;7.05;;;3.60;;
75009;SDS011;63564;46.840;18.336;2022-10-23T12:55:18;6.57;;;3.58;;
75009;SDS011;63564;46.840;18.336;2022-10-23T12:58:19;7.40;;;3.77;;
75009;SDS011;63564;46.840;18.336;2022-10-23T13:01:33;7.35;;;3.85;;
75009;SDS011;63564;46.840;18.336;2022-10-23T13:04:33;7.82;;;4.05;;
75009;SDS011;63564;46.840;18.336;2022-10-23T13:07:36;7.57;;;3.80;;
75009;SDS011;63564;46.840;18.336;2022-10-23T13:10:42;6.60;;;3.90;;
75009;SDS011;63564;46.840;18.336;2022-10-23T13:13:42;6.93;;;3.53;;
75009;SDS011;63564;46.840;18.336;2022-10-23T13:16:43;6.87;;;3.83;;
75009;SDS011;63564;46.840;18.336;2022-10-23T13:19:43;6.93;;;3.70;;
75009;SDS011;63564;46.840;18.336;2022-10-23T13:22:44;6.97;;;3.80;;
75009;SDS011;63564;46.840;18.336;2022-10-23T13:25:51;7.53;;;3.78;;
75009;SDS011;63564;46.840;18.336;2022-10-23T13:29:02;8.05;;;4.32;;
75009;SDS011;63564;46.840;18.336;2022-10-23T13:32:21;7.90;;;4.03;;
75009;SDS011;63564;46.840;18.336;2022-10-23T13:35:23;6.43;;;3.50;;
75009;SDS011;63564;46.840;18.336;2022-10-23T13:38:30;7.27;;;3.80;;
75009;SDS011;63564;46.840;18.336;2022-10-23T13:41:37;7.47;;;3.60;;
75009;SDS011;63564;46.840;18.336;2022-10-23T13:44:40;6.75;;;3.67;;
75009;SDS011;63564;46.840;18.336;2022-10-23T13:47:41;6.88;;;3.63;;
75009;SDS011;63564;46.840;18.336;2022-10-23T13:50:41;6.97;;;3.63;;
75009;SDS011;63564;46.840;18.336;2022-10-23T13:53:41;7.30;;;3.57;;
75009;SDS011;63564;46.840;18.336;2022-10-23T13:56:42;6.13;;;2.90;;
75009;SDS011;63564;46.840;18.336;2022-10-23T13:59:42;4.80;;;2.20;;
75009;SDS011;63564;46.840;18.336;2022-10-23T14:02:43;3.83;;;1.90;;
75009;SDS011;63564;46.840;18.336;2022-10-23T14:05:43;3.43;;;1.60;;
75009;SDS011;63564;46.840;18.336;2022-10-23T14:08:44;4.17;;;1.77;;
75009;SDS011;63564;46.840;18.336;2022-10-23T14:11:44;3.57;;;1.63;;
75009;SDS011;63564;46.840;18.336;2022-10-23T14:14:49;3.30;;;1.50;;
75009;SDS011;63564;46.840;18.336;2022-10-23T14:17:50;3.47;;;1.42;;
75009;SDS011;63564;46.840;18.336;2022-10-23T14:20:51;3.37;;;1.60;;
75009;SDS011;63564;46.840;18.336;2022-10-23T14:23:52;3.10;;;1.60;;
75009;SDS011;63564;46.840;18.336;2022-10-23T14:26:52;3.78;;;1.63;;
75009;SDS011;63564;46.840;18.336;2022-10-23T14:29:53;3.87;;;1.60;;
75009;SDS011;63564;46.840;18.336;2022-10-23T14:32:53;4.00;;;1.90;;
75009;SDS011;63564;46.840;18.336;2022-10-23T14:35:53;3.97;;;1.90;;
75009;SDS011;63564;46.840;18.336;2022-10-23T14:38:54;3.60;;;1.80;;
75009;SDS011;63564;46.840;18.336;2022-10-23T14:41:55;4.70;;;1.83;;
75009;SDS011;63564;46.840;18.336;2022-10-23T14:44:56;4.37;;;1.90;;
75009;SDS011;63564;46.840;18.336;2022-10-23T14:47:56;4.15;;;2.05;;
75009;SDS011;63564;46.840;18.336;2022-10-23T14:50:57;5.00;;;2.40;;
75009;SDS011;63564;46.840;18.336;2022-10-23T14:53:58;5.70;;;2.83;;
75009;SDS011;63564;46.840;18.336;2022-10-23T14:57:03;5.70;;;3.05;;
75009;SDS011;63564;46.840;18.336;2022-10-23T15:00:06;5.60;;;2.60;;
75009;SDS011;63564;46.840;18.336;2022-10-23T15:03:07;5.40;;;2.83;;
75009;SDS011;63564;46.840;18.336;2022-10-23T15:06:07;5.60;;;2.73;;
75009;SDS011;63564;46.840;18.336;2022-10-23T15:09:08;5.40;;;2.67;;
75009;SDS011;63564;46.840;18.336;2022-10-23T15:12:08;5.40;;;2.77;;
75009;SDS011;63564;46.840;18.336;2022-10-23T15:15:09;6.20;;;2.63;;
75009;SDS011;63564;46.840;18.336;2022-10-23T15:18:09;6.47;;;3.00;;
75009;SDS011;63564;46.840;18.336;2022-10-23T15:21:10;5.77;;;2.70;;
75009;SDS011;63564;46.840;18.336;2022-10-23T15:24:10;6.00;;;2.83;;
75009;SDS011;63564;46.840;18.336;2022-10-23T15:27:11;6.00;;;2.90;;
75009;SDS011;63564;46.840;18.336;2022-10-23T15:30:11;5.70;;;3.00;;
75009;SDS011;63564;46.840;18.336;2022-10-23T15:33:11;5.73;;;3.10;;
75009;SDS011;63564;46.840;18.336;2022-10-23T15:36:12;8.10;;;3.47;;
75009;SDS011;63564;46.840;18.336;2022-10-23T15:39:13;6.67;;;3.20;;
75009;SDS011;63564;46.840;18.336;2022-10-23T15:42:16;7.40;;;3.30;;
75009;SDS011;63564;46.840;18.336;2022-10-23T15:45:18;7.60;;;3.30;;
75009;SDS011;63564;46.840;18.336;2022-10-23T15:48:18;6.00;;;3.50;;
75009;SDS011;63564;46.840;18.336;2022-10-23T15:51:18;7.07;;;3.50;;
75009;SDS011;63564;46.840;18.336;2022-10-23T15:54:19;7.07;;;3.77;;
75009;SDS011;63564;46.840;18.336;2022-10-23T15:57:20;7.35;;;4.00;;
75009;SDS011;63564;46.840;18.336;2022-10-23T16:00:20;6.93;;;3.53;;
75009;SDS011;63564;46.840;18.336;2022-10-23T16:03:21;6.83;;;3.77;;
75009;SDS011;63564;46.840;18.336;2022-10-23T16:06:21;7.27;;;4.00;;
75009;SDS011;63564;46.840;18.336;2022-10-23T16:09:22;7.73;;;4.17;;
75009;SDS011;63564;46.840;18.336;2022-10-23T16:12:22;7.77;;;3.90;;
75009;SDS011;63564;46.840;18.336;2022-10-23T16:15:23;7.00;;;3.90;;
75009;SDS011;63564;46.840;18.336;2022-10-23T16:18:23;8.13;;;4.60;;
75009;SDS011;63564;46.840;18.336;2022-10-23T16:21:24;7.90;;;3.95;;
75009;SDS011;63564;46.840;18.336;2022-10-23T16:24:27;8.10;;;4.60;;
75009;SDS011;63564;46.840;18.336;2022-10-23T16:27:28;8.02;;;4.40;;
75009;SDS011;63564;46.840;18.336;2022-10-23T16:30:28;7.47;;;4.47;;
75009;SDS011;63564;46.840;18.336;2022-10-23T16:33:29;8.48;;;4.68;;
75009;SDS011;63564;46.840;18.336;2022-10-23T16:36:29;9.33;;;4.60;;
75009;SDS011;63564;46.840;18.336;2022-10-23T16:39:29;9.20;;;4.83;;
75009;SDS011;63564;46.840;18.336;2022-10-23T16:42:30;9.20;;;4.97;;
75009;SDS011;63564;46.840;18.336;2022-10-23T16:45:30;9.30;;;5.73;;
75009;SDS011;63564;46.840;18.336;2022-10-23T16:48:31;9.73;;;5.78;;
75009;SDS011;63564;46.840;18.336;2022-10-23T16:51:33;8.67;;;5.20;;
75009;SDS011;63564;46.840;18.336;2022-10-23T16:54:33;10.05;;;5.43;;
75009;SDS011;63564;46.840;18.336;2022-10-23T16:57:34;10.37;;;5.70;;
75009;SDS011;63564;46.840;18.336;2022-10-23T17:00:35;9.77;;;6.00;;
75009;SDS011;63564;46.840;18.336;2022-10-23T17:03:36;10.90;;;6.17;;
75009;SDS011;63564;46.840;18.336;2022-10-23T17:06:38;10.82;;;6.15;;
75009;SDS011;63564;46.840;18.336;2022-10-23T17:09:39;10.53;;;6.10;;
75009;SDS011;63564;46.840;18.336;2022-10-23T17:12:39;10.93;;;6.43;;
75009;SDS011;63564;46.840;18.336;2022-10-23T17:15:40;18.30;;;8.43;;
75009;SDS011;63564;46.840;18.336;2022-10-23T17:18:41;37.87;;;13.70;;
75009;SDS011;63564;46.840;18.336;2022-10-23T17:21:43;51.37;;;17.53;;
75009;SDS011;63564;46.840;18.336;2022-10-23T17:24:43;40.67;;;18.20;;
75009;SDS011;63564;46.840;18.336;2022-10-23T17:27:47;46.20;;;27.43;;
75009;SDS011;63564;46.840;18.336;2022-10-23T17:30:47;31.23;;;18.85;;
75009;SDS011;63564;46.840;18.336;2022-10-23T17:33:49;22.63;;;15.03;;
75009;SDS011;63564;46.840;18.336;2022-10-23T17:36:51;20.73;;;12.68;;
75009;SDS011;63564;46.840;18.336;2022-10-23T17:39:53;18.23;;;11.43;;
75009;SDS011;63564;46.840;18.336;2022-10-23T17:42:53;24.17;;;13.80;;
75009;SDS011;63564;46.840;18.336;2022-10-23T17:45:54;26.27;;;13.77;;
75009;SDS011;63564;46.840;18.336;2022-10-23T17:48:57;33.13;;;16.40;;
75009;SDS011;63564;46.840;18.336;2022-10-23T17:51:59;30.50;;;17.63;;
75009;SDS011;63564;46.840;18.336;2022-10-23T17:55:00;25.50;;;15.43;;
75009;SDS011;63564;46.840;18.336;2022-10-23T17:58:01;31.90;;;20.77;;
75009;SDS011;63564;46.840;18.336;2022-10-23T18:01:09;39.10;;;25.33;;
75009;SDS011;63564;46.840;18.336;2022-10-23T18:04:11;32.65;;;18.50;;
75009;SDS011;63564;46.840;18.336;2022-10-23T18:07:11;28.50;;;15.57;;
75009;SDS011;63564;46.840;18.336;2022-10-23T18:10:12;30.10;;;14.73;;
75009;SDS011;63564;46.840;18.336;2022-10-23T18:13:12;29.23;;;13.23;;
75009;SDS011;63564;46.840;18.336;2022-10-23T18:16:13;28.73;;;13.53;;
75009;SDS011;63564;46.840;18.336;2022-10-23T18:19:14;20.43;;;11.37;;
75009;SDS011;63564;46.840;18.336;2022-10-23T18:22:19;17.63;;;10.45;;
75009;SDS011;63564;46.840;18.336;2022-10-23T18:25:20;17.33;;;10.23;;
75009;SDS011;63564;46.840;18.336;2022-10-23T18:28:20;17.98;;;10.00;;
75009;SDS011;63564;46.840;18.336;2022-10-23T18:31:20;17.05;;;10.10;;
75009;SDS011;63564;46.840;18.336;2022-10-23T18:34:24;17.17;;;9.47;;
75009;SDS011;63564;46.840;18.336;2022-10-23T18:37:24;20.02;;;11.63;;
75009;SDS011;63564;46.840;18.336;2022-10-23T18:40:25;21.80;;;11.27;;
75009;SDS011;63564;46.840;18.336;2022-10-23T18:43:25;32.47;;;14.77;;
75009;SDS011;63564;46.840;18.336;2022-10-23T18:46:26;23.50;;;11.77;;
75009;SDS011;63564;46.840;18.336;2022-10-23T18:49:26;19.37;;;10.23;;
75009;SDS011;63564;46.840;18.336;2022-10-23T18:52:27;18.95;;;10.25;;
75009;SDS011;63564;46.840;18.336;2022-10-23T18:55:28;17.98;;;10.27;;
75009;SDS011;63564;46.840;18.336;2022-10-23T18:58:28;17.77;;;10.10;;
75009;SDS011;63564;46.840;18.336;2022-10-23T19:01:29;18.73;;;9.60;;
75009;SDS011;63564;46.840;18.336;2022-10-23T19:04:30;17.27;;;9.68;;
75009;SDS011;63564;46.840;18.336;2022-10-23T19:07:31;17.93;;;9.67;;
75009;SDS011;63564;46.840;18.336;2022-10-23T19:10:32;19.95;;;11.05;;
75009;SDS011;63564;46.840;18.336;2022-10-23T19:13:33;20.63;;;10.93;;
75009;SDS011;63564;46.840;18.336;2022-10-23T19:16:41;22.27;;;11.23;;
75009;SDS011;63564;46.840;18.336;2022-10-23T19:20:06;19.90;;;11.50;;